Terminal Aerodrome Forecast
Issued by NWS

Home | Current Version | Previous Version | Text Only | Print | Product List | Glossary On
Versions: 1 2 3 4 5 6 7 8 9 10 11 12 13 14 15 16 17 18
000
FTUS44 KLZK 271120
TAFBPK
TAF
KBPK 271120Z 2712/2812 VRB03KT 3SM BR SCT002 OVC030
      TEMPO 2712/2714 1SM BR OVC002
     FM271400 13005KT P6SM SCT050 SCT100
     FM271800 17005KT P6SM VCTS BKN050CB BKN100
     FM280100 15004KT P6SM SCT250
      TEMPO 2809/2812 5SM BR SCT015=

USA.gov is the U.S. government's official web portal to all federal, state and local government web resources and services.